Time;durP1;ratioP1;P1;durP2;ratioP2;P2;SDS_P1;SDS_P2;PMS_P1;PMS_P2;Temp;Humidity;BMP_temperature;BMP_pressure;BME280_temperature;BME280_humidity;BME280_pressure;Samples;Min_cycle;Max_cycle;Signal;HPM_P1;HPM_P2
2022/09/26 00:03:54;;;;;;;34.85;27.27;;;21.10;56.50;;;;;;4440001;63;21112;-32
2022/09/26 00:08:55;;;;;;;35.15;26.60;;;21.10;56.50;;;;;;4482901;59;21136;-28
2022/09/26 00:13:59;;;;;;;33.70;27.15;;;21.00;56.40;;;;;;4448088;59;21056;-30
2022/09/26 00:19:01;;;;;;;33.42;26.00;;;21.10;56.50;;;;;;4439969;63;21060;-26
2022/09/26 00:24:03;;;;;;;31.83;25.85;;;21.10;56.50;;;;;;4468728;59;21507;-31
2022/09/26 00:29:06;;;;;;;32.22;25.48;;;21.00;56.50;;;;;;4446153;59;21059;-32
2022/09/26 00:34:10;;;;;;;31.05;24.67;;;21.10;56.50;;;;;;4454642;59;21104;-28
2022/09/26 00:39:13;;;;;;;31.17;25.08;;;21.10;56.50;;;;;;4446277;59;21158;-27
2022/09/26 00:44:46;;;;;;;33.88;26.08;;;21.10;56.50;;;;;;4439996;59;21144;-30
2022/09/26 00:49:49;;;;;;;32.75;25.08;;;21.00;56.50;;;;;;4448990;59;21069;-27
2022/09/26 00:54:54;;;;;;;32.22;25.60;;;21.00;56.50;;;;;;4453622;59;21048;-28
2022/09/26 01:00:00;;;;;;;31.50;24.95;;;21.00;56.50;;;;;;4476995;59;21040;-28
2022/09/26 01:05:04;;;;;;;32.00;24.98;;;21.00;56.50;;;;;;4463946;59;21060;-32
2022/09/26 01:10:06;;;;;;;32.08;24.52;;;21.10;56.60;;;;;;4445427;59;21527;-26
2022/09/26 01:15:08;;;;;;;30.20;23.77;;;21.00;56.50;;;;;;4440166;63;21028;-26
2022/09/26 01:23:55;;;;;;;28.85;23.50;;;21.10;56.60;;;;;;4467463;59;21085;-29
2022/09/26 01:29:24;;;;;;;30.27;24.20;;;21.00;56.50;;;;;;4466715;59;21623;-27
2022/09/26 01:34:35;;;;;;;29.23;23.12;;;21.10;56.60;;;;;;4460916;59;21020;-29
2022/09/26 01:40:32;;;;;;;28.35;23.45;;;21.10;56.60;;;;;;4440498;63;21546;-28
2022/09/26 01:47:39;;;;;;;29.25;23.73;;;21.00;56.50;;;;;;4452933;59;21200;-34
2022/09/26 01:52:50;;;;;;;29.52;22.80;;;21.00;56.50;;;;;;4441861;59;21056;-30
2022/09/26 01:58:26;;;;;;;27.75;23.10;;;21.00;56.50;;;;;;4489292;59;21044;-31
2022/09/26 02:03:34;;;;;;;26.23;21.42;;;21.10;56.60;;;;;;4440236;59;21108;-29
2022/09/26 02:08:40;;;;;;;28.02;21.83;;;21.00;56.50;;;;;;4454654;59;21047;-27
2022/09/26 02:14:02;;;;;;;25.70;21.62;;;21.00;56.60;;;;;;4461293;59;21578;-34
2022/09/26 02:19:24;;;;;;;26.77;21.92;;;21.00;56.60;;;;;;4458595;59;21523;-30
2022/09/26 02:24:26;;;;;;;26.65;21.50;;;21.00;56.60;;;;;;4493029;59;21052;-34
2022/09/26 02:29:27;;;;;;;28.25;21.83;;;21.00;56.50;;;;;;4511709;59;21077;-30
2022/09/26 02:34:28;;;;;;;24.90;21.12;;;21.00;56.60;;;;;;4440926;63;21506;-29
2022/09/26 02:39:29;;;;;;;26.42;20.92;;;21.00;56.60;;;;;;4467555;59;21064;-33
2022/09/26 02:45:05;;;;;;;25.90;21.55;;;21.00;56.60;;;;;;4455146;58;21558;-30
2022/09/26 02:50:54;;;;;;;25.25;20.95;;;21.00;56.60;;;;;;4439553;63;21673;-31
2022/09/26 02:56:22;;;;;;;27.87;21.87;;;21.00;56.60;;;;;;4462493;59;21110;-29
2022/09/26 03:04:08;;;;;;;25.48;20.75;;;21.00;56.60;;;;;;4453994;59;21629;-31
2022/09/26 03:09:11;;;;;;;24.92;20.95;;;21.00;56.60;;;;;;4458898;59;21111;-27
2022/09/26 03:14:13;;;;;;;23.27;19.73;;;21.00;56.60;;;;;;4440727;59;21044;-27
2022/09/26 03:19:31;;;;;;;24.80;20.37;;;21.00;56.60;;;;;;4457464;59;21101;-31
2022/09/26 03:24:35;;;;;;;23.95;19.58;;;21.00;56.60;;;;;;4480399;59;21027;-28
2022/09/26 03:29:36;;;;;;;25.33;20.52;;;21.00;56.60;;;;;;4440532;63;21114;-29
2022/09/26 03:34:38;;;;;;;23.20;20.25;;;21.00;56.60;;;;;;4452152;58;21526;-32
2022/09/26 03:39:39;;;;;;;23.52;19.23;;;21.00;56.60;;;;;;4440118;62;21546;-33
2022/09/26 03:44:41;;;;;;;22.08;19.17;;;21.00;56.70;;;;;;4444941;59;21064;-28
2022/09/26 03:49:42;;;;;;;24.00;19.30;;;21.00;56.70;;;;;;4454854;58;21586;-30
2022/09/26 03:54:43;;;;;;;22.73;18.65;;;21.00;56.80;;;;;;4439621;62;21097;-29
2022/09/26 03:59:45;;;;;;;23.65;19.15;;;21.00;56.70;;;;;;4514148;59;21116;-34
2022/09/26 04:04:45;;;;;;;22.65;18.92;;;21.00;56.80;;;;;;4447485;58;21514;-26
2022/09/26 04:09:46;;;;;;;22.92;18.65;;;21.00;57.30;;;;;;4450054;58;21078;-33
2022/09/26 04:14:47;;;;;;;22.13;18.73;;;21.00;57.00;;;;;;4457888;58;21098;-29
2022/09/26 04:19:48;;;;;;;21.52;17.70;;;21.00;56.80;;;;;;4463132;58;21064;-34
2022/09/26 04:24:50;;;;;;;21.92;18.05;;;21.00;56.90;;;;;;4465532;58;21134;-33
2022/09/26 04:29:51;;;;;;;22.00;17.75;;;21.00;56.90;;;;;;4464567;58;22084;-33
2022/09/26 04:34:52;;;;;;;21.40;17.27;;;21.00;57.00;;;;;;4440654;59;21514;-28
2022/09/26 04:39:53;;;;;;;21.08;17.37;;;21.00;57.00;;;;;;4464264;58;21144;-28
2022/09/26 04:44:54;;;;;;;20.45;17.02;;;21.00;57.10;;;;;;4440090;62;21561;-28
2022/09/26 04:49:54;;;;;;;21.08;17.17;;;21.00;57.10;;;;;;4439683;58;21125;-27
2022/09/26 04:54:55;;;;;;;19.55;16.45;;;21.00;57.10;;;;;;4480579;58;21422;-31
2022/09/26 04:59:56;;;;;;;21.48;16.55;;;21.00;57.00;;;;;;4458416;59;21206;-29
2022/09/26 05:04:58;;;;;;;19.60;15.93;;;21.00;57.10;;;;;;4462588;58;21577;-32
2022/09/26 05:09:59;;;;;;;20.02;16.02;;;21.00;57.10;;;;;;4485750;58;21493;-29
2022/09/26 05:15:00;;;;;;;20.67;16.50;;;21.00;57.00;;;;;;4463813;58;21134;-31
2022/09/26 05:20:09;;;;;;;20.50;16.58;;;21.00;57.10;;;;;;4456668;59;21578;-30
2022/09/26 05:30:30;;;;;;;17.42;15.02;;;21.00;57.20;;;;;;4439734;59;21159;-28
2022/09/26 05:35:33;;;;;;;18.33;15.60;;;21.00;57.10;;;;;;4454471;58;21562;-29
2022/09/26 05:45:57;;;;;;;20.05;16.25;;;21.00;57.10;;;;;;4449699;59;21135;-26
2022/09/26 05:51:11;;;;;;;18.27;15.57;;;21.00;57.10;;;;;;4464478;59;21064;-32
2022/09/26 05:56:13;;;;;;;19.65;15.88;;;21.00;57.10;;;;;;4441079;59;21538;-31
2022/09/26 06:01:16;;;;;;;19.60;15.40;;;21.00;57.20;;;;;;4440476;63;21594;-28
2022/09/26 06:06:18;;;;;;;18.87;15.70;;;21.00;57.10;;;;;;4439753;59;21638;-30
2022/09/26 06:11:23;;;;;;;18.87;16.02;;;21.00;57.10;;;;;;4453215;59;21048;-27
2022/09/26 06:16:24;;;;;;;20.40;16.10;;;21.00;57.10;;;;;;4467369;58;21582;-30
2022/09/26 06:21:26;;;;;;;17.58;15.32;;;21.00;57.20;;;;;;4440257;63;21140;-32
2022/09/26 06:26:27;;;;;;;19.77;15.55;;;21.00;57.10;;;;;;4439811;62;21080;-35
2022/09/26 06:31:29;;;;;;;18.48;15.68;;;21.00;57.10;;;;;;4444893;58;21055;-31
2022/09/26 06:36:30;;;;;;;21.05;16.25;;;21.00;57.10;;;;;;4440091;63;21253;-30
2022/09/26 06:41:31;;;;;;;20.20;16.08;;;21.00;57.10;;;;;;4440125;62;21526;-29
2022/09/26 06:46:32;;;;;;;19.23;16.23;;;21.00;57.20;;;;;;4440662;62;21096;-31
2022/09/26 06:51:33;;;;;;;19.58;16.40;;;21.00;57.30;;;;;;4471902;58;21089;-34
2022/09/26 06:56:34;;;;;;;23.25;17.77;;;21.00;57.20;;;;;;4439842;62;21064;-34
2022/09/26 07:01:35;;;;;;;25.10;19.17;;;21.10;57.60;;;;;;4461587;58;21116;-30
2022/09/26 07:06:37;;;;;;;26.30;20.05;;;21.10;57.90;;;;;;4451418;58;21189;-34
2022/09/26 07:11:37;;;;;;;27.33;22.13;;;21.10;58.10;;;;;;4462813;58;21682;-30
2022/09/26 07:16:38;;;;;;;29.73;23.58;;;21.20;58.20;;;;;;4446166;58;21051;-35
2022/09/26 07:21:39;;;;;;;30.55;23.35;;;21.20;58.40;;;;;;4447209;58;21044;-31
2022/09/26 07:26:41;;;;;;;30.65;23.92;;;21.30;58.50;;;;;;4440111;59;21068;-33
2022/09/26 07:31:41;;;;;;;32.45;25.80;;;21.30;58.60;;;;;;4445812;59;21096;-28
2022/09/26 07:36:42;;;;;;;34.47;26.50;;;21.30;58.70;;;;;;4441478;58;21060;-31
2022/09/26 07:41:47;;;;;;;37.28;26.62;;;21.30;58.50;;;;;;4451833;58;21117;-36
2022/09/26 07:52:07;;;;;;;40.25;28.60;;;21.40;59.50;;;;;;4449712;59;21155;-35
2022/09/26 07:57:08;;;;;;;41.63;29.87;;;21.40;59.20;;;;;;4441390;58;21650;-36
2022/09/26 08:02:20;;;;;;;43.40;29.37;;;21.40;59.30;;;;;;4454504;58;21148;-35
2022/09/26 08:07:21;;;;;;;39.35;29.60;;;21.40;59.30;;;;;;4449810;59;21084;-33
2022/09/26 08:12:22;;;;;;;43.70;30.17;;;21.50;59.50;;;;;;4440369;59;21149;-28
2022/09/26 08:17:22;;;;;;;43.38;32.28;;;21.50;59.60;;;;;;4441884;59;21113;-31
2022/09/26 08:22:23;;;;;;;47.60;35.15;;;21.50;59.70;;;;;;4442232;59;21137;-27
2022/09/26 08:27:25;;;;;;;49.00;36.20;;;21.50;59.80;;;;;;4441083;58;21069;-30
2022/09/26 08:32:26;;;;;;;50.12;37.03;;;21.60;60.00;;;;;;4441483;59;21530;-36
2022/09/26 08:37:28;;;;;;;54.72;37.55;;;21.60;60.80;;;;;;4451888;58;21578;-37
2022/09/26 08:47:01;;;;;;;59.60;40.92;;;21.60;60.20;;;;;;4440523;59;21056;-36
2022/09/26 08:52:20;;;;;;;56.28;41.70;;;21.60;60.30;;;;;;4463298;59;21554;-37
2022/09/26 08:58:11;;;;;;;54.67;40.25;;;21.60;60.20;;;;;;4464061;59;21052;-37
2022/09/26 09:05:26;;;;;;;56.13;41.85;;;21.60;60.10;;;;;;4466732;59;21506;-37
2022/09/26 09:10:54;;;;;;;56.83;40.78;;;21.50;60.00;;;;;;4443273;59;21060;-34
2022/09/26 09:19:40;;;;;;;55.50;41.72;;;21.60;60.20;;;;;;4463639;59;21084;-34
2022/09/26 09:24:53;;;;;;;;;;;21.50;59.90;;;;;;4442973;60;21025;-30
2022/09/26 09:30:20;;;;;;;55.75;39.90;;;21.50;59.90;;;;;;4442066;58;20299;-36
2022/09/26 09:37:15;;;;;;;55.60;39.60;;;21.50;59.90;;;;;;4454269;59;21052;-36
2022/09/26 09:42:42;;;;;;;56.50;39.22;;;21.60;60.50;;;;;;4440199;63;21298;-33
2022/09/26 09:47:43;;;;;;;54.30;38.63;;;21.60;61.10;;;;;;4477219;59;21180;-35
2022/09/26 09:54:27;;;;;;;52.67;40.58;;;21.70;61.50;;;;;;4440131;58;21056;-28
2022/09/26 10:01:58;;;;;;;58.28;41.20;;;21.70;61.60;;;;;;4450805;59;21108;-33
2022/09/26 10:07:00;;;;;;;52.47;39.72;;;21.80;62.00;;;;;;4441717;59;21134;-27
2022/09/26 10:12:13;;;;;;;55.10;41.10;;;21.80;62.10;;;;;;4445328;58;21044;-33
2022/09/26 10:17:18;;;;;;;54.38;39.92;;;21.90;62.40;;;;;;4519152;59;21051;-33
2022/09/26 10:22:44;;;;;;;54.38;42.05;;;21.90;62.50;;;;;;4456246;59;21084;-33
2022/09/26 10:27:56;;;;;;;60.28;42.17;;;21.90;62.50;;;;;;4440052;59;21634;-31
2022/09/26 10:32:59;;;;;;;56.95;41.28;;;22.00;62.80;;;;;;4456400;59;21102;-32
2022/09/26 10:38:02;;;;;;;53.10;40.17;;;22.00;62.80;;;;;;4446878;59;21188;-31
2022/09/26 10:43:21;;;;;;;53.58;38.97;;;22.00;62.90;;;;;;4458012;59;21098;-35
2022/09/26 10:48:37;;;;;;;53.87;39.67;;;22.00;63.00;;;;;;4439923;59;21096;-32
2022/09/26 10:53:40;;;;;;;52.85;40.28;;;22.10;63.10;;;;;;4439814;59;21120;-32
2022/09/26 10:58:45;;;;;;;54.22;41.13;;;22.10;63.20;;;;;;4454963;59;21118;-31
2022/09/26 11:03:47;;;;;;;53.92;40.45;;;22.10;63.30;;;;;;4466991;59;21060;-32
2022/09/26 11:08:52;;;;;;;55.70;41.10;;;22.10;63.40;;;;;;4448390;59;21111;-34
2022/09/26 11:14:08;;;;;;;54.53;40.50;;;22.10;63.30;;;;;;4444174;59;21072;-36
2022/09/26 11:19:23;;;;;;;53.65;39.83;;;22.00;63.10;;;;;;4453733;59;21064;-30
2022/09/26 11:24:53;;;;;;;52.80;40.90;;;22.00;63.10;;;;;;4465136;59;21028;-35
2022/09/26 11:30:11;;;;;;;51.65;40.08;;;22.00;63.00;;;;;;4443096;59;21017;-26
2022/09/26 11:38:52;;;;;;;53.05;38.22;;;22.00;63.10;;;;;;4449833;59;21073;-31
2022/09/26 11:44:09;;;;;;;51.65;37.97;;;21.90;62.90;;;;;;4440420;63;21606;-34
2022/09/26 11:50:48;;;;;;;48.53;37.58;;;21.90;63.10;;;;;;4438746;63;21085;-32
2022/09/26 11:59:39;;;;;;;49.75;38.00;;;22.00;63.20;;;;;;4441833;59;21040;-29
2022/09/26 12:06:45;;;;;;;47.70;35.47;;;22.00;63.40;;;;;;4439835;60;21080;-31
2022/09/26 12:12:14;;;;;;;45.12;35.78;;;22.10;63.60;;;;;;4439915;63;21068;-33
2022/09/26 12:17:51;;;;;;;43.47;34.55;;;22.10;63.80;;;;;;4459414;59;21498;-29
2022/09/26 12:23:22;;;;;;;46.37;34.35;;;22.10;63.90;;;;;;4470522;59;21630;-34
2022/09/26 12:29:01;;;;;;;43.17;33.97;;;22.10;64.10;;;;;;4445726;59;21136;-34
2022/09/26 12:34:28;;;;;;;46.63;34.75;;;22.20;64.20;;;;;;4455501;59;21068;-30
2022/09/26 12:42:16;;;;;;;39.40;33.00;;;22.20;64.30;;;;;;4440500;63;21032;-27
2022/09/26 12:52:53;;;;;;;41.80;33.83;;;22.20;64.40;;;;;;4466602;59;21542;-33
2022/09/26 13:00:40;;;;;;;43.35;34.05;;;22.20;64.50;;;;;;4440521;59;21056;-27
2022/09/26 13:07:41;;;;;;;39.25;33.15;;;22.30;64.70;;;;;;4481974;59;21773;-28
2022/09/26 13:16:39;;;;;;;41.97;33.85;;;22.30;64.80;;;;;;4444039;59;21091;-30
2022/09/26 13:21:47;;;;;;;40.88;33.10;;;22.30;64.90;;;;;;4463334;59;21522;-31
2022/09/26 13:26:56;;;;;;;42.45;33.72;;;22.30;64.90;;;;;;4439923;63;21140;-31
2022/09/26 13:42:17;;;;;;;42.72;32.00;;;22.30;65.00;;;;;;4484802;59;21064;-30
2022/09/26 13:48:12;;;;;;;45.87;34.30;;;22.40;65.40;;;;;;4470921;59;21148;-31
2022/09/26 13:53:29;;;;;;;39.30;31.45;;;22.40;65.60;;;;;;4461516;59;21098;-27
2022/09/26 13:58:38;;;;;;;36.63;30.30;;;22.30;65.60;;;;;;4454378;59;21136;-34
2022/09/26 14:03:41;;;;;;;38.17;31.17;;;22.30;65.80;;;;;;4459555;59;21508;-31
2022/09/26 14:14:25;;;;;;;36.47;30.08;;;22.30;66.40;;;;;;4439730;59;21068;-29
2022/09/26 14:19:43;;;;;;;36.42;29.10;;;22.30;65.70;;;;;;4440391;59;21191;-31
2022/09/26 14:24:45;;;;;;;40.63;32.40;;;22.20;65.80;;;;;;4440087;63;21581;-32
2022/09/26 14:30:23;;;;;;;38.80;30.50;;;22.20;66.30;;;;;;4441873;59;21613;-34
2022/09/26 14:35:31;;;;;;;38.45;30.33;;;22.10;66.30;;;;;;4466679;59;21545;-37
2022/09/26 14:40:38;;;;;;;37.05;30.50;;;22.10;66.10;;;;;;4443971;59;21109;-38
2022/09/26 14:45:50;;;;;;;;;;;22.00;66.00;;;;;;4473009;59;21041;-29
2022/09/26 14:51:38;;;;;;;34.60;28.52;;;22.00;65.90;;;;;;4440474;63;20071;-27
2022/09/26 14:56:49;;;;;;;35.05;28.80;;;22.00;65.90;;;;;;4444891;59;21048;-35
2022/09/26 15:01:51;;;;;;;36.92;28.73;;;21.90;65.80;;;;;;4454481;59;21104;-35
2022/09/26 15:07:03;;;;;;;36.58;29.33;;;21.90;65.80;;;;;;4446943;59;21068;-32
2022/09/26 15:12:27;;;;;;;34.03;28.60;;;21.90;65.80;;;;;;4457287;59;21514;-28
2022/09/26 15:17:33;;;;;;;34.83;27.90;;;21.90;65.70;;;;;;4441045;59;21080;-37
2022/09/26 15:22:34;;;;;;;30.83;26.33;;;21.80;65.70;;;;;;4450202;59;21117;-34
2022/09/26 15:27:35;;;;;;;35.08;29.00;;;21.80;65.70;;;;;;4442634;58;21219;-35
2022/09/26 15:32:37;;;;;;;37.10;29.20;;;21.80;65.50;;;;;;4447645;59;21123;-26
2022/09/26 15:37:38;;;;;;;32.78;27.85;;;21.80;65.50;;;;;;4439973;63;21135;-35
2022/09/26 15:42:57;;;;;;;33.15;28.10;;;21.80;65.40;;;;;;4441421;58;21052;-36
2022/09/26 15:48:08;;;;;;;34.58;29.10;;;21.70;65.40;;;;;;4457700;59;21152;-33
2022/09/26 15:54:12;;;;;;;33.25;28.35;;;21.80;65.40;;;;;;4444073;59;21533;-26
2022/09/26 15:59:27;;;;;;;33.47;27.70;;;21.70;65.20;;;;;;4439783;59;21589;-31
2022/09/26 16:04:29;;;;;;;32.10;27.85;;;21.70;65.20;;;;;;4442535;59;21100;-38
2022/09/26 16:09:39;;;;;;;31.80;27.05;;;21.70;65.10;;;;;;4438645;63;21032;-26
2022/09/26 16:15:04;;;;;;;31.05;26.92;;;21.70;65.10;;;;;;4460825;59;21594;-27
2022/09/26 16:21:20;;;;;;;31.92;27.73;;;21.70;65.70;;;;;;4482488;59;21538;-31
2022/09/26 16:26:42;;;;;;;33.75;28.33;;;21.70;65.00;;;;;;4443441;59;21183;-35
2022/09/26 16:31:46;;;;;;;30.80;27.00;;;21.70;65.00;;;;;;4502725;59;21208;-29
2022/09/26 16:36:48;;;;;;;34.28;29.15;;;21.70;64.90;;;;;;4441736;59;21042;-33
2022/09/26 16:42:04;;;;;;;32.60;28.87;;;21.70;64.90;;;;;;4439829;63;21155;-35
2022/09/26 16:48:31;;;;;;;31.95;27.60;;;21.70;64.80;;;;;;4467747;59;21607;-31
2022/09/26 16:53:31;;;;;;;;;;;21.60;64.80;;;;;;4455332;59;21218;-34
2022/09/26 16:58:33;;;;;;;32.58;27.85;;;21.60;64.70;;;;;;4445322;59;20079;-28
2022/09/26 17:03:35;;;;;;;34.22;29.10;;;21.60;64.60;;;;;;4439186;63;21048;-37
2022/09/26 17:08:36;;;;;;;33.05;28.27;;;21.60;64.60;;;;;;4438791;59;21601;-31
2022/09/26 17:13:39;;;;;;;33.05;28.52;;;21.60;64.60;;;;;;4444107;58;21081;-27
2022/09/26 17:18:43;;;;;;;33.25;28.67;;;21.60;64.60;;;;;;4440252;62;22242;-29
2022/09/26 17:23:44;;;;;;;33.72;28.85;;;21.60;64.50;;;;;;4453575;58;21590;-29
2022/09/26 17:28:45;;;;;;;32.13;28.62;;;21.60;64.40;;;;;;4438932;62;21547;-35
2022/09/26 17:33:51;;;;;;;32.55;28.87;;;21.60;64.40;;;;;;4440188;63;21092;-29
2022/09/26 17:38:53;;;;;;;33.47;27.80;;;21.60;64.50;;;;;;4460167;59;21024;-33
2022/09/26 17:43:59;;;;;;;33.40;29.02;;;21.60;64.40;;;;;;4441221;58;21499;-30
2022/09/26 17:49:03;;;;;;;33.10;27.10;;;21.60;64.40;;;;;;4455219;59;21577;-30
2022/09/26 17:54:06;;;;;;;32.85;27.75;;;21.60;64.20;;;;;;4460778;58;21610;-37
2022/09/26 17:59:21;;;;;;;34.22;28.55;;;21.60;64.20;;;;;;4450943;59;21690;-33
2022/09/26 18:04:27;;;;;;;32.45;28.60;;;21.60;64.20;;;;;;4440289;63;21593;-32
2022/09/26 18:09:33;;;;;;;31.08;27.67;;;21.60;64.20;;;;;;4441222;59;21484;-28
2022/09/26 18:14:34;;;;;;;34.25;28.10;;;21.60;64.20;;;;;;4439772;63;21100;-33
2022/09/26 18:19:38;;;;;;;32.65;28.95;;;21.60;64.20;;;;;;4440678;63;21148;-31
2022/09/26 18:24:39;;;;;;;31.98;27.45;;;21.60;64.20;;;;;;4468234;59;21064;-33
2022/09/26 18:29:42;;;;;;;31.55;28.15;;;21.60;64.20;;;;;;4480506;59;21457;-29
2022/09/26 18:34:43;;;;;;;34.10;28.58;;;21.50;64.20;;;;;;4473340;59;21076;-33
2022/09/26 18:39:44;;;;;;;31.50;27.87;;;21.60;64.20;;;;;;4455727;59;22030;-30
2022/09/26 18:44:45;;;;;;;30.75;27.02;;;21.50;64.70;;;;;;4461002;58;21453;-30
2022/09/26 18:49:46;;;;;;;31.58;27.20;;;21.60;64.10;;;;;;4449443;58;21096;-26
2022/09/26 18:58:22;;;;;;;31.48;27.92;;;21.60;64.10;;;;;;4488544;58;21040;-30
2022/09/26 19:03:25;;;;;;;30.70;27.02;;;21.50;64.00;;;;;;4461420;58;21655;-26
2022/09/26 19:08:35;;;;;;;32.83;27.13;;;21.60;64.00;;;;;;4457502;59;21180;-33
2022/09/26 19:13:36;;;;;;;31.05;27.20;;;21.60;64.00;;;;;;4452312;59;21188;-32
2022/09/26 19:18:37;;;;;;;30.52;27.23;;;21.60;63.90;;;;;;4537903;58;21108;-29
2022/09/26 19:23:38;;;;;;;30.27;26.98;;;21.60;64.00;;;;;;4458997;59;21555;-32
2022/09/26 19:28:39;;;;;;;31.83;28.38;;;21.50;63.90;;;;;;4458488;58;21121;-29
2022/09/26 19:33:42;;;;;;;30.80;27.37;;;21.60;64.00;;;;;;4451592;58;21078;-30
2022/09/26 19:38:44;;;;;;;31.35;27.92;;;21.50;63.90;;;;;;4485446;59;21125;-32
2022/09/26 19:43:45;;;;;;;30.85;27.58;;;21.50;63.80;;;;;;4454520;59;21105;-27
2022/09/26 19:48:46;;;;;;;30.30;26.87;;;21.50;63.90;;;;;;4450148;58;21121;-29
2022/09/26 19:53:47;;;;;;;31.33;27.73;;;21.50;63.80;;;;;;4448243;58;21065;-31
2022/09/26 19:58:49;;;;;;;28.98;25.88;;;21.50;63.80;;;;;;4457884;58;21088;-30
2022/09/26 20:03:50;;;;;;;31.35;27.58;;;21.50;63.80;;;;;;4486210;58;22017;-28
2022/09/26 20:08:58;;;;;;;32.65;28.40;;;21.50;63.80;;;;;;4447225;58;21166;-29
2022/09/26 20:19:36;;;;;;;29.67;26.40;;;21.50;63.70;;;;;;4439640;63;21125;-29
2022/09/26 20:24:38;;;;;;;31.62;27.50;;;21.50;63.70;;;;;;4465772;59;21554;-27
2022/09/26 20:35:01;;;;;;;31.90;27.45;;;21.50;63.70;;;;;;4440367;59;21125;-27
2022/09/26 20:40:18;;;;;;;31.05;26.58;;;21.50;63.60;;;;;;4501476;59;21060;-31
2022/09/26 20:45:29;;;;;;;31.87;27.13;;;21.50;63.60;;;;;;4473474;59;21160;-27
2022/09/26 20:50:30;;;;;;;31.58;27.45;;;21.50;63.60;;;;;;4438741;63;21077;-33
2022/09/26 20:55:33;;;;;;;31.25;27.70;;;21.50;63.60;;;;;;4444587;59;21963;-27
2022/09/26 21:00:34;;;;;;;31.77;28.38;;;21.50;63.60;;;;;;4443627;59;21143;-30
2022/09/26 21:05:35;;;;;;;30.15;26.58;;;21.50;63.60;;;;;;4448109;59;21140;-35
2022/09/26 21:10:36;;;;;;;29.37;26.27;;;21.50;63.60;;;;;;4440620;59;21056;-33
2022/09/26 21:15:40;;;;;;;30.02;26.60;;;21.50;63.60;;;;;;4453008;58;21550;-31
2022/09/26 21:20:41;;;;;;;30.67;27.40;;;21.50;63.60;;;;;;4440188;63;21622;-27
2022/09/26 21:25:41;;;;;;;31.90;27.55;;;21.50;63.70;;;;;;4448371;58;21064;-30
2022/09/26 21:30:42;;;;;;;31.67;27.27;;;21.50;63.60;;;;;;4449536;58;21121;-27
2022/09/26 21:35:46;;;;;;;29.27;26.02;;;21.50;63.60;;;;;;4449656;58;21555;-26
2022/09/26 21:40:51;;;;;;;28.75;25.65;;;21.50;63.60;;;;;;4456958;59;21056;-28
2022/09/26 21:45:52;;;;;;;30.33;27.02;;;21.50;63.60;;;;;;4443466;59;21128;-26
2022/09/26 21:50:56;;;;;;;29.98;26.70;;;21.50;63.60;;;;;;4470711;58;21522;-26
2022/09/26 21:56:01;;;;;;;29.45;26.30;;;21.50;63.60;;;;;;4469274;59;21048;-27
2022/09/26 22:01:01;;;;;;;28.10;25.10;;;21.50;63.50;;;;;;4466791;59;21056;-29
2022/09/26 22:06:05;;;;;;;30.17;26.52;;;21.50;63.50;;;;;;4449280;58;21149;-30
2022/09/26 22:11:10;;;;;;;29.02;25.45;;;21.50;63.60;;;;;;4469543;59;21133;-28
2022/09/26 22:16:12;;;;;;;29.52;26.33;;;21.50;63.50;;;;;;4449330;59;21570;-30
2022/09/26 22:21:13;;;;;;;30.62;26.20;;;21.50;63.60;;;;;;4459447;58;21151;-30
2022/09/26 22:26:14;;;;;;;30.05;26.25;;;21.50;63.50;;;;;;4465003;58;21056;-30
2022/09/26 22:31:15;;;;;;;28.55;25.55;;;21.50;63.60;;;;;;4456098;58;21052;-34
2022/09/26 22:36:16;;;;;;;28.52;25.40;;;21.50;63.50;;;;;;4461632;59;21072;-32
2022/09/26 22:41:17;;;;;;;28.02;24.85;;;21.40;63.50;;;;;;4444638;58;21044;-29
2022/09/26 22:46:18;;;;;;;28.42;25.42;;;21.50;63.50;;;;;;4453384;58;21141;-26
2022/09/26 22:51:19;;;;;;;27.62;24.73;;;21.50;63.50;;;;;;4462239;58;21068;-29
2022/09/26 22:56:20;;;;;;;29.05;25.83;;;21.40;63.40;;;;;;4446532;58;21048;-35
2022/09/26 23:01:24;;;;;;;29.02;25.83;;;21.50;63.50;;;;;;4445244;59;21036;-34
2022/09/26 23:06:25;;;;;;;28.15;25.12;;;21.50;63.50;;;;;;4440039;63;21123;-31
2022/09/26 23:11:27;;;;;;;28.90;25.88;;;21.50;63.50;;;;;;4439984;60;21104;-32
2022/09/26 23:16:27;;;;;;;27.08;24.17;;;21.50;63.40;;;;;;4462578;59;21550;-29
2022/09/26 23:21:28;;;;;;;27.42;24.50;;;21.50;63.50;;;;;;4463545;58;21147;-28
2022/09/26 23:26:30;;;;;;;27.42;23.98;;;21.40;63.30;;;;;;4440092;58;21071;-33
2022/09/26 23:31:31;;;;;;;28.02;24.65;;;21.40;63.40;;;;;;4441728;58;21634;-30
2022/09/26 23:36:32;;;;;;;27.75;24.75;;;21.50;63.50;;;;;;4476210;58;21029;-30
2022/09/26 23:41:33;;;;;;;27.08;24.25;;;21.50;63.40;;;;;;4442209;58;21102;-28
2022/09/26 23:46:33;;;;;;;27.20;24.23;;;21.50;63.40;;;;;;4442069;58;21072;-30
2022/09/26 23:51:34;;;;;;;25.62;22.87;;;21.40;63.30;;;;;;4480228;58;21582;-28
2022/09/26 23:56:35;;;;;;;26.40;23.58;;;21.40;63.30;;;;;;4442921;58;21036;-35
